createdAt,value
2022-10-10T00:00:10.971Z,14.80
2022-10-10T00:03:53.594Z,14.80
2022-10-10T00:07:35.467Z,14.80
2022-10-10T00:11:20.852Z,14.70
2022-10-10T00:15:02.842Z,14.70
2022-10-10T00:18:45.092Z,14.70
2022-10-10T00:22:27.160Z,14.60
2022-10-10T00:26:10.134Z,14.70
2022-10-10T00:29:53.075Z,14.70
2022-10-10T00:33:35.590Z,14.70
2022-10-10T00:37:17.406Z,14.80
2022-10-10T00:40:59.500Z,14.80
2022-10-10T00:44:43.260Z,14.80
2022-10-10T00:48:33.772Z,14.80
2022-10-10T00:52:15.618Z,14.80
2022-10-10T00:55:58.232Z,14.80
2022-10-10T00:59:42.786Z,14.80
2022-10-10T01:03:24.652Z,14.80
2022-10-10T01:07:28.291Z,14.90
2022-10-10T01:11:37.023Z,14.80
2022-10-10T01:15:52.692Z,14.90
2022-10-10T01:20:03.064Z,14.80
2022-10-10T01:24:23.617Z,14.80
2022-10-10T01:28:22.671Z,14.80
2022-10-10T01:32:11.495Z,14.90
2022-10-10T01:36:07.214Z,14.90
2022-10-10T01:40:00.189Z,14.90
2022-10-10T01:43:42.675Z,14.90
2022-10-10T01:47:24.960Z,14.90
2022-10-10T01:51:18.855Z,14.90
2022-10-10T01:55:20.309Z,14.90
2022-10-10T01:59:39.805Z,14.90
2022-10-10T02:03:29.464Z,14.90
2022-10-10T02:07:55.980Z,15.00
2022-10-10T02:11:39.735Z,15.00
2022-10-10T02:15:24.431Z,15.00
2022-10-10T02:19:10.642Z,15.00
2022-10-10T02:22:53.881Z,15.00
2022-10-10T02:26:38.469Z,15.00
2022-10-10T02:30:20.498Z,15.00
2022-10-10T02:34:11.783Z,15.00
2022-10-10T02:37:54.803Z,15.00
2022-10-10T02:41:37.610Z,15.10
2022-10-10T02:45:21.085Z,15.10
2022-10-10T02:49:02.919Z,15.10
2022-10-10T02:52:44.759Z,15.10
2022-10-10T02:56:26.710Z,15.10
2022-10-10T03:00:09.180Z,15.20
2022-10-10T03:03:51.057Z,15.20
2022-10-10T03:07:32.860Z,15.20
2022-10-10T03:11:14.745Z,15.10
2022-10-10T03:14:56.702Z,15.10
2022-10-10T03:18:38.718Z,15.10
2022-10-10T03:22:20.524Z,15.10
2022-10-10T03:26:03.572Z,15.10
2022-10-10T03:29:45.470Z,15.10
2022-10-10T03:33:27.280Z,15.10
2022-10-10T03:37:09.518Z,15.10
2022-10-10T03:40:51.355Z,15.10
2022-10-10T03:44:33.218Z,15.10
2022-10-10T03:48:15.716Z,15.10
2022-10-10T03:51:57.609Z,15.00
2022-10-10T03:55:41.198Z,15.00
2022-10-10T03:59:23.102Z,15.00
2022-10-10T04:03:06.553Z,15.00
2022-10-10T04:06:48.432Z,15.00
2022-10-10T04:10:30.728Z,15.00
2022-10-10T04:14:12.526Z,14.90
2022-10-10T04:17:54.327Z,14.90
2022-10-10T04:21:36.647Z,14.90
2022-10-10T04:25:18.623Z,14.90
2022-10-10T04:29:00.860Z,14.90
2022-10-10T04:32:42.720Z,14.80
2022-10-10T04:36:24.597Z,14.90
2022-10-10T04:40:06.951Z,14.90
2022-10-10T04:43:48.779Z,14.90
2022-10-10T04:47:30.672Z,14.90
2022-10-10T04:51:12.514Z,14.90
2022-10-10T04:54:54.331Z,14.90
2022-10-10T04:58:36.420Z,14.90
2022-10-10T05:02:18.230Z,14.90
2022-10-10T05:06:00.091Z,14.90
2022-10-10T05:09:41.942Z,14.90
2022-10-10T05:13:23.745Z,14.90
2022-10-10T05:17:05.575Z,14.90
2022-10-10T05:20:47.892Z,15.00
2022-10-10T05:24:29.703Z,14.90
2022-10-10T05:28:12.239Z,14.90
2022-10-10T05:31:54.118Z,14.80
2022-10-10T05:35:36.062Z,14.60
2022-10-10T05:39:17.892Z,14.50
2022-10-10T05:42:59.683Z,14.40
2022-10-10T05:46:41.571Z,14.20
2022-10-10T05:50:46.604Z,14.10
2022-10-10T05:54:28.448Z,13.90
2022-10-10T05:58:13.477Z,13.80
2022-10-10T06:01:55.798Z,13.60
2022-10-10T06:05:37.596Z,13.50
2022-10-10T06:09:19.435Z,13.40
2022-10-10T06:13:01.319Z,13.30
2022-10-10T06:16:45.239Z,13.20
2022-10-10T06:20:27.085Z,13.10
2022-10-10T06:24:10.767Z,13.10
2022-10-10T06:27:52.586Z,13.00
2022-10-10T06:31:39.326Z,13.00
2022-10-10T06:35:21.239Z,12.90
2022-10-10T06:39:03.469Z,12.90
2022-10-10T06:42:45.401Z,12.90
2022-10-10T06:46:27.274Z,12.90
2022-10-10T06:50:09.273Z,12.90
2022-10-10T06:53:51.092Z,12.90
2022-10-10T06:57:32.998Z,12.90
2022-10-10T07:01:17.085Z,12.90
2022-10-10T07:04:58.903Z,12.90
2022-10-10T07:08:41.461Z,12.90
2022-10-10T07:12:23.265Z,12.90
2022-10-10T07:16:06.017Z,12.90
2022-10-10T07:19:47.831Z,12.90
2022-10-10T07:23:31.670Z,13.00
2022-10-10T07:27:13.486Z,13.00
2022-10-10T07:31:01.007Z,13.00
2022-10-10T07:34:42.915Z,13.00
2022-10-10T07:38:24.804Z,12.90
2022-10-10T07:42:06.645Z,12.80
2022-10-10T07:45:48.625Z,12.80
2022-10-10T07:49:30.503Z,12.70
2022-10-10T07:53:12.679Z,12.60
2022-10-10T07:56:54.932Z,12.50
2022-10-10T08:00:37.595Z,12.50
2022-10-10T08:04:19.558Z,12.50
2022-10-10T08:08:01.888Z,12.40
2022-10-10T08:11:43.937Z,12.40
2022-10-10T08:15:27.844Z,12.40
2022-10-10T08:23:00.032Z,12.40
2022-10-10T08:26:41.906Z,12.60
2022-10-10T08:30:23.721Z,13.10
2022-10-10T08:34:05.525Z,13.50
2022-10-10T08:37:47.597Z,13.80
2022-10-10T08:41:55.339Z,13.90
2022-10-10T08:45:39.116Z,14.00
2022-10-10T08:49:35.323Z,14.10
2022-10-10T08:53:45.354Z,14.30
2022-10-10T08:57:30.939Z,14.40
2022-10-10T09:01:23.741Z,14.60
2022-10-10T09:05:16.558Z,14.60
2022-10-10T09:09:01.394Z,14.60
2022-10-10T09:13:00.807Z,14.70
2022-10-10T09:17:04.229Z,14.80
2022-10-10T09:20:58.262Z,15.00
2022-10-10T09:24:55.733Z,15.30
2022-10-10T09:28:50.119Z,15.40
2022-10-10T09:32:41.922Z,15.50
2022-10-10T09:36:34.145Z,15.60
2022-10-10T09:40:34.496Z,15.90
2022-10-10T09:44:18.916Z,16.30
2022-10-10T09:48:00.793Z,16.70
2022-10-10T09:51:43.526Z,17.30
2022-10-10T09:55:34.884Z,18.00
2022-10-10T09:59:37.671Z,18.90
2022-10-10T10:03:21.807Z,20.00
2022-10-10T10:07:07.327Z,20.80
2022-10-10T10:10:49.333Z,21.70
2022-10-10T10:14:36.555Z,22.30
2022-10-10T10:18:20.796Z,22.80
2022-10-10T10:22:02.984Z,23.40
2022-10-10T10:25:44.904Z,24.00
2022-10-10T10:29:30.421Z,24.40
2022-10-10T10:33:24.150Z,25.00
2022-10-10T10:37:23.403Z,25.50
2022-10-10T10:41:15.831Z,26.10
2022-10-10T10:45:08.848Z,26.60
2022-10-10T10:49:02.464Z,27.20
2022-10-10T10:52:47.102Z,27.80
2022-10-10T10:56:46.938Z,28.30
2022-10-10T11:01:23.457Z,28.80
2022-10-10T11:05:23.583Z,29.30
2022-10-10T11:09:44.906Z,29.50
2022-10-10T11:13:27.807Z,29.80
2022-10-10T11:17:43.850Z,29.90
2022-10-10T11:21:29.506Z,30.00
2022-10-10T11:25:42.638Z,30.30
2022-10-10T11:29:36.080Z,30.50
2022-10-10T11:33:29.780Z,30.60
2022-10-10T11:37:18.036Z,30.70
2022-10-10T11:41:09.311Z,30.90
2022-10-10T11:45:06.969Z,31.30
2022-10-10T11:48:55.794Z,31.50
2022-10-10T11:52:46.622Z,31.40
2022-10-10T11:56:36.750Z,31.50
2022-10-10T12:00:18.916Z,31.70
2022-10-10T12:04:00.768Z,32.00
2022-10-10T12:07:59.954Z,32.30
2022-10-10T12:11:53.909Z,32.40
2022-10-10T12:15:42.628Z,32.40
2022-10-10T12:19:28.313Z,32.30
2022-10-10T12:23:19.319Z,32.50
2022-10-10T12:27:01.075Z,32.70
2022-10-10T12:31:03.501Z,32.80
2022-10-10T12:34:48.531Z,32.80
2022-10-10T12:38:30.386Z,32.70
2022-10-10T12:42:31.895Z,32.80
2022-10-10T12:46:30.034Z,33.00
2022-10-10T12:50:22.853Z,33.30
2022-10-10T12:54:07.066Z,33.50
2022-10-10T12:57:50.638Z,33.60
2022-10-10T13:01:37.114Z,33.60
2022-10-10T13:05:35.177Z,33.60
2022-10-10T13:09:35.181Z,33.80
2022-10-10T13:13:20.781Z,33.90
2022-10-10T13:17:02.595Z,33.90
2022-10-10T13:20:44.479Z,33.90
2022-10-10T13:24:31.483Z,34.00
2022-10-10T13:28:18.969Z,34.00
2022-10-10T13:32:08.217Z,33.70
2022-10-10T13:35:51.046Z,33.40
2022-10-10T13:39:36.517Z,33.40
2022-10-10T13:43:19.486Z,33.20
2022-10-10T13:47:39.674Z,33.00
2022-10-10T13:51:41.916Z,33.20
2022-10-10T13:55:27.425Z,33.40
2022-10-10T13:59:13.106Z,33.60
2022-10-10T14:02:54.995Z,33.50
2022-10-10T14:06:37.074Z,33.20
2022-10-10T14:10:23.576Z,33.00
2022-10-10T14:14:14.616Z,32.70
2022-10-10T14:17:56.424Z,32.60
2022-10-10T14:21:38.199Z,32.60
2022-10-10T14:25:20.027Z,32.70
2022-10-10T14:29:01.993Z,32.80
2022-10-10T14:32:43.838Z,32.60
2022-10-10T14:36:25.633Z,32.50
2022-10-10T14:40:30.552Z,32.40
2022-10-10T14:44:12.968Z,32.30
2022-10-10T14:47:54.864Z,32.30
2022-10-10T14:51:38.204Z,32.20
2022-10-10T14:55:20.005Z,31.60
2022-10-10T14:59:01.898Z,31.30
2022-10-10T15:02:45.845Z,31.20
2022-10-10T15:06:27.910Z,31.10
2022-10-10T15:10:32.666Z,31.00
2022-10-10T15:14:13.514Z,30.70
2022-10-10T15:17:58.024Z,30.40
2022-10-10T15:21:39.841Z,29.80
2022-10-10T15:25:21.670Z,29.00
2022-10-10T15:29:03.534Z,27.90
2022-10-10T15:32:45.574Z,27.10
2022-10-10T15:36:27.484Z,26.80
2022-10-10T15:40:10.171Z,26.70
2022-10-10T15:43:54.801Z,26.70
2022-10-10T15:47:44.183Z,26.70
2022-10-10T15:51:29.064Z,26.20
2022-10-10T15:55:11.186Z,25.60
2022-10-10T15:58:57.789Z,25.10
2022-10-10T16:02:39.632Z,24.90
2022-10-10T16:06:25.227Z,24.70
2022-10-10T16:10:07.444Z,24.40
2022-10-10T16:13:55.055Z,24.00
2022-10-10T16:17:37.042Z,23.60
2022-10-10T16:21:21.755Z,23.20
2022-10-10T16:25:21.850Z,22.70
2022-10-10T16:29:06.543Z,22.30
2022-10-10T16:32:49.378Z,22.00
2022-10-10T16:36:33.746Z,21.70
2022-10-10T16:40:15.656Z,21.50
2022-10-10T16:43:57.803Z,21.30
2022-10-10T16:47:39.630Z,21.10
2022-10-10T16:51:25.784Z,21.00
2022-10-10T16:55:08.385Z,20.80
2022-10-10T16:58:50.915Z,20.60
2022-10-10T17:02:32.755Z,20.50
2022-10-10T17:06:19.079Z,20.30
2022-10-10T17:10:00.880Z,20.20
2022-10-10T17:13:43.203Z,20.00
2022-10-10T17:17:25.070Z,19.90
2022-10-10T17:21:16.154Z,19.80
2022-10-10T17:24:57.994Z,19.70
2022-10-10T17:28:40.030Z,19.50
2022-10-10T17:32:23.137Z,19.40
2022-10-10T17:36:10.443Z,19.30
2022-10-10T17:39:52.271Z,19.20
2022-10-10T17:43:36.022Z,19.10
2022-10-10T17:47:17.858Z,18.90
2022-10-10T17:51:00.185Z,18.80
2022-10-10T17:54:41.988Z,18.70
2022-10-10T17:58:23.831Z,18.50
2022-10-10T18:02:05.758Z,18.40
2022-10-10T18:05:47.627Z,18.20
2022-10-10T18:09:29.402Z,18.10
2022-10-10T18:13:11.222Z,17.90
2022-10-10T18:16:53.071Z,17.80
2022-10-10T18:20:38.302Z,17.60
2022-10-10T18:24:20.179Z,17.50
2022-10-10T18:28:02.029Z,17.40
2022-10-10T18:31:44.757Z,17.20
2022-10-10T18:35:26.753Z,17.00
2022-10-10T18:39:12.799Z,16.90
2022-10-10T18:42:54.639Z,16.80
2022-10-10T18:46:37.124Z,16.60
2022-10-10T18:50:20.356Z,16.50
2022-10-10T18:54:04.791Z,16.30
2022-10-10T18:57:46.644Z,16.10
2022-10-10T19:01:30.789Z,16.00
2022-10-10T19:05:12.619Z,15.80
2022-10-10T19:08:56.177Z,15.70
2022-10-10T19:12:38.122Z,15.60
2022-10-10T19:16:21.136Z,15.40
2022-10-10T19:20:03.786Z,15.30
2022-10-10T19:23:45.694Z,15.20
2022-10-10T19:27:27.492Z,15.00
2022-10-10T19:31:14.830Z,14.90
2022-10-10T19:34:56.627Z,14.60
2022-10-10T19:38:40.456Z,14.40
2022-10-10T19:42:22.343Z,14.30
2022-10-10T19:46:06.688Z,14.20
2022-10-10T19:49:49.147Z,14.00
2022-10-10T19:53:33.399Z,13.90
2022-10-10T19:57:15.529Z,13.80
2022-10-10T20:00:57.438Z,13.70
2022-10-10T20:04:39.281Z,13.60
2022-10-10T20:08:21.180Z,13.50
2022-10-10T20:12:02.987Z,13.40
2022-10-10T20:15:46.975Z,13.20
2022-10-10T20:19:28.861Z,13.00
2022-10-10T20:23:12.912Z,12.90
2022-10-10T20:26:54.899Z,12.70
2022-10-10T20:30:41.231Z,12.60
2022-10-10T20:34:23.114Z,12.60
2022-10-10T20:38:05.216Z,12.50
2022-10-10T20:41:47.019Z,12.40
2022-10-10T20:45:28.808Z,12.40
2022-10-10T20:49:14.397Z,12.30
2022-10-10T20:52:56.226Z,12.30
2022-10-10T20:56:38.213Z,12.20
2022-10-10T21:00:20.665Z,12.10
2022-10-10T21:04:02.678Z,12.00
2022-10-10T21:07:45.958Z,11.90
2022-10-10T21:11:27.781Z,11.90
2022-10-10T21:15:10.039Z,11.80
2022-10-10T21:18:57.382Z,11.80
2022-10-10T21:22:40.920Z,11.70
2022-10-10T21:26:24.071Z,11.60
2022-10-10T21:30:06.580Z,11.50
2022-10-10T21:33:48.451Z,11.40
2022-10-10T21:37:30.596Z,11.30
2022-10-10T21:41:22.064Z,11.30
2022-10-10T21:45:04.404Z,11.10
2022-10-10T21:48:46.342Z,11.00
2022-10-10T21:52:28.255Z,10.90
2022-10-10T21:56:11.334Z,10.80
2022-10-10T21:59:53.287Z,10.70
2022-10-10T22:03:35.170Z,10.60
2022-10-10T22:07:17.123Z,10.60
2022-10-10T22:11:07.369Z,10.40
2022-10-10T22:14:49.295Z,10.20
2022-10-10T22:18:31.594Z,10.20
2022-10-10T22:22:13.809Z,10.10
2022-10-10T22:25:55.598Z,10.00
2022-10-10T22:29:37.418Z,9.90
2022-10-10T22:33:19.207Z,9.90
2022-10-10T22:37:01.037Z,9.80
2022-10-10T22:40:42.856Z,9.70
2022-10-10T22:44:24.695Z,9.60
2022-10-10T22:48:06.676Z,9.60
2022-10-10T22:51:48.472Z,9.60
2022-10-10T22:55:30.374Z,9.50
2022-10-10T22:59:12.220Z,9.50
2022-10-10T23:02:58.048Z,9.40
2022-10-10T23:06:40.354Z,9.30
2022-10-10T23:10:22.120Z,9.30
2022-10-10T23:14:04.275Z,9.20
2022-10-10T23:17:46.122Z,9.10
2022-10-10T23:21:28.067Z,9.00
2022-10-10T23:25:09.925Z,8.90
2022-10-10T23:28:51.971Z,8.90
2022-10-10T23:32:33.864Z,8.90
2022-10-10T23:36:16.191Z,8.80
2022-10-10T23:39:58.190Z,8.70
2022-10-10T23:43:40.410Z,8.70
2022-10-10T23:47:22.267Z,8.60
2022-10-10T23:51:04.547Z,8.60
2022-10-10T23:54:46.399Z,8.50
2022-10-10T23:58:28.295Z,8.50
